Capitol Logistics 7457

Operating for MZN



KRIC
Richmond International Airport
Richmond, Virginia
TJSJ
Luis Munoz Marin International Airport
San Juan,

Activity Log

Date Flight Route Aircraft Duration
04/16/2021 CPX7457 HPW ECG AR8 OXANA L452 LNHOM L452 SLUKA Y439 FIPEK Y355 PLING RTE7 SAALR B738 3h 08m

Route Details

Aircraft Information
Primary: Boeing 737-800BCF
Backup: Boeing 757-200SF
Route Data
Distance: 1291nm
Duration: 2h 58m
Recm'd Route: HPW ECG AR8 OXANA L452 LNHOM L452 SLUKA Y439 FIPEK Y355 PLING RTE7 SAALR
Origin Wx: KRIC 180154Z 06004KT 10SM BKN090 OVC120 14/07 A2986 RMK AO2 SLP117 T01390067
Dest. Wx: TJSJ 180156Z 18003KT 10SM CLR 27/21 A3005 RMK AO2 SLP173 T02720206
Notes: